CheckWX is a tool to help pilots better visualize weather data.  It is not intended as a substitute for an official pre-flight weather briefing.

21:38:43 UTC

EGUW METAR
RAF Wattisham Airport
Stowmarket, United Kingdom
Current

49 mins ago

EGUW 232050Z AUTO 15005KT 6000 HZ NCD 07/05 Q1034
Observed
Feb-23 @ 20:50 UTC
Wind
  • 150° at 5 KTS
Visibility
6,003 meters
Flight Rules
MVFR
Conditions
Haze
Cloud Levels
  • Clear skies
Temperature
C / 45°F
Dewpoint
C / 41°F
Humidity
87%
Altimeter
30.53" Hg
Pressure
1033.91 hPa
Previous

2 hours ago

EGUW 231950Z AUTO 16006KT 6000 HZ NCD 07/05 Q1034
Observed
Feb-23 @ 19:50 UTC
Wind
  • 160° at 6 KTS
Visibility
6,003 meters
Flight Rules
MVFR
Conditions
Haze
Cloud Levels
  • Clear skies
Temperature
C / 45°F
Dewpoint
C / 41°F
Humidity
87%
Altimeter
30.53" Hg
Pressure
1033.91 hPa
Previous

3 hours ago

EGUW 231850Z AUTO 15005KT 6000 HZ NCD 06/05 Q1034
Observed
Feb-23 @ 18:50 UTC
Wind
  • 150° at 5 KTS
Visibility
6,003 meters
Flight Rules
MVFR
Conditions
Haze
Cloud Levels
  • Clear skies
Temperature
C / 43°F
Dewpoint
C / 41°F
Humidity
93%
Altimeter
30.53" Hg
Pressure
1033.91 hPa